Time;durP1;ratioP1;P1;durP2;ratioP2;P2;SDS_P1;SDS_P2;PMS_P1;PMS_P2;Temp;Humidity;BMP_temperature;BMP_pressure;BME280_temperature;BME280_humidity;BME280_pressure;Samples;Min_cycle;Max_cycle;Signal;HPM_P1;HPM_P2
2022/01/03 00:00:24;;;;;;;3.87;3.33;;;;;;;18.31;41.14;97864.50;1803355;78;20966;-65
2022/01/03 00:02:53;;;;;;;4.08;3.67;;;;;;;18.27;41.21;97901.09;1796894;78;20926;-66
2022/01/03 00:05:22;;;;;;;3.40;3.10;;;;;;;18.24;41.29;97911.02;1800464;78;20944;-66
2022/01/03 00:07:48;;;;;;;3.92;3.12;;;;;;;18.23;41.38;97932.79;1811614;79;20983;-68
2022/01/03 00:10:16;;;;;;;3.62;2.98;;;;;;;18.24;41.37;97942.50;1800041;78;21147;-66
2022/01/03 00:12:45;;;;;;;3.55;3.25;;;;;;;18.29;41.32;97963.55;1790548;78;20940;-67
2022/01/03 00:15:14;;;;;;;4.90;3.30;;;;;;;18.34;41.27;97968.98;1805658;77;20989;-62
2022/01/03 00:17:42;;;;;;;3.65;3.30;;;;;;;18.34;41.28;97974.89;1803077;78;37806;-67
2022/01/03 00:20:12;;;;;;;3.17;2.87;;;;;;;18.39;41.23;97956.91;1802617;79;20844;-65
2022/01/03 00:22:53;;;;;;;3.40;3.10;;;;;;;18.48;40.96;97936.53;1796380;78;21164;-68
2022/01/03 00:25:21;;;;;;;3.40;2.75;;;;;;;18.56;40.84;97923.15;1805431;78;21544;-68
2022/01/03 00:28:01;;;;;;;3.00;2.77;;;;;;;18.56;40.79;97931.23;1804824;78;21515;-65
2022/01/03 00:30:27;;;;;;;2.83;2.60;;;;;;;18.61;40.72;97923.71;1810179;79;20997;-65
2022/01/03 00:32:54;;;;;;;3.00;2.70;;;;;;;18.67;40.58;97919.96;1807148;79;21008;-65
2022/01/03 00:35:20;;;;;;;3.42;3.02;;;;;;;18.75;40.39;97921.64;1755650;80;21138;-64
2022/01/03 00:37:47;;;;;;;2.80;2.60;;;;;;;18.78;40.28;97921.66;1748080;81;20952;-68
2022/01/03 00:40:17;;;;;;;2.95;2.60;;;;;;;18.75;40.26;97918.13;1730788;82;20899;-67
2022/01/03 00:42:43;;;;;;;3.15;2.87;;;;;;;18.76;40.19;97914.38;1763915;80;20979;-65
2022/01/03 00:45:10;;;;;;;3.37;3.08;;;;;;;18.79;40.06;97908.48;1798547;79;21001;-66
2022/01/03 00:47:36;;;;;;;3.10;2.80;;;;;;;18.73;40.08;97917.59;1776387;80;21140;-66
2022/01/03 00:50:12;;;;;;;2.80;2.45;;;;;;;18.69;40.12;97914.63;1757134;80;20978;-67
2022/01/03 00:52:38;;;;;;;3.00;2.70;;;;;;;18.69;40.03;97915.97;1813094;78;20900;-67
2022/01/03 00:55:06;;;;;;;3.42;2.77;;;;;;;18.70;40.01;97907.33;1809392;78;21528;-66
2022/01/03 00:58:03;;;;;;;3.20;2.90;;;;;;;18.72;39.92;97909.25;1768677;80;21010;-64
2022/01/03 01:00:32;;;;;;;2.30;2.10;;;;;;;18.73;39.85;97898.20;1799379;78;21141;-68
2022/01/03 01:03:14;;;;;;;2.77;2.20;;;;;;;18.77;39.73;97891.21;1816360;78;20906;-65
2022/01/03 01:05:44;;;;;;;2.77;2.37;;;;;;;18.84;39.64;97885.08;1808477;78;20891;-65
2022/01/03 01:08:10;;;;;;;3.10;2.20;;;;;;;18.96;39.43;97876.77;1800476;78;20973;-64
2022/01/03 01:10:40;;;;;;;2.30;2.10;;;;;;;18.95;39.35;97864.39;1773951;80;20966;-66
2022/01/03 01:13:11;;;;;;;2.70;2.35;;;;;;;18.96;39.24;97865.98;1728872;82;21141;-62
2022/01/03 01:15:41;;;;;;;2.33;2.12;;;;;;;18.96;39.20;97868.16;1741729;81;20978;-65
2022/01/03 01:18:08;;;;;;;2.50;2.30;;;;;;;18.95;39.13;97857.65;1756030;81;20962;-64
2022/01/03 01:20:36;;;;;;;2.72;2.52;;;;;;;18.96;39.09;97865.45;1746628;81;20994;-66
2022/01/03 01:23:06;;;;;;;2.45;2.25;;;;;;;18.92;39.07;97856.83;1730405;81;21073;-68
2022/01/03 01:28:08;;;;;;;4.35;2.80;;;;;;;18.91;39.00;97849.80;1736414;81;20989;-64
2022/01/03 01:30:36;;;;;;;2.70;2.50;;;;;;;19.02;38.83;97840.70;1741617;81;20899;-62
2022/01/03 01:33:13;;;;;;;5.78;4.45;;;;;;;19.00;38.79;97829.37;1738019;81;20915;-64
2022/01/03 01:35:53;;;;;;;5.55;4.70;;;;;;;18.95;38.82;97831.48;1738398;81;21437;-64
2022/01/03 01:38:24;;;;;;;4.58;4.17;;;;;;;19.02;38.68;97826.69;1737548;81;21807;-66
2022/01/03 01:40:54;;;;;;;4.10;3.70;;;;;;;19.10;38.56;97830.23;1739871;81;20985;-68
2022/01/03 01:43:39;;;;;;;3.20;2.90;;;;;;;19.11;38.54;97831.02;1732922;81;21084;-63
2022/01/03 01:46:13;;;;;;;3.42;2.80;;;;;;;19.17;38.42;97827.80;1734560;81;21053;-68
2022/01/03 01:48:44;;;;;;;2.90;2.70;;;;;;;19.25;38.23;97826.76;1700217;84;20893;-67
2022/01/03 01:51:14;;;;;;;4.42;3.17;;;;;;;19.21;38.27;97824.86;1767781;78;21175;-68
2022/01/03 01:53:46;;;;;;;3.22;2.80;;;;;;;19.19;38.24;97817.02;1741462;80;20844;-65
2022/01/03 01:56:18;;;;;;;3.77;3.12;;;;;;;19.12;38.28;97813.78;1769241;78;20924;-63
2022/01/03 01:59:11;;;;;;;4.33;3.33;;;;;;;19.12;38.28;97808.39;1773505;78;21073;-68
2022/01/03 02:02:04;;;;;;;3.40;3.10;;;;;;;19.17;38.18;97807.05;1756449;78;21034;-66
2022/01/03 02:04:45;;;;;;;2.45;2.25;;;;;;;19.25;38.12;97797.64;1773710;80;21588;-65
2022/01/03 02:07:41;;;;;;;3.25;2.80;;;;;;;19.25;38.07;97789.02;1774074;78;20974;-67
2022/01/03 02:10:13;;;;;;;;;;;;;;;19.24;38.12;97781.21;1771854;78;20979;-68
2022/01/03 02:12:47;;;;;;;3.02;2.60;;;;;;;19.16;38.32;97788.47;1772047;79;20094;-64
2022/01/03 02:15:16;;;;;;;3.85;3.05;;;;;;;19.17;38.28;97790.88;1778003;78;21423;-66
2022/01/03 02:17:47;;;;;;;3.60;3.30;;;;;;;19.21;38.19;97792.52;1765991;78;21984;-64
2022/01/03 02:20:23;;;;;;;4.00;3.20;;;;;;;19.14;38.24;97787.36;1779909;79;21008;-67
2022/01/03 02:22:53;;;;;;;4.40;2.98;;;;;;;19.13;38.15;97777.68;1779303;78;21406;-66
2022/01/03 02:25:22;;;;;;;3.47;2.92;;;;;;;19.05;38.27;97790.31;1776850;79;21232;-67
2022/01/03 02:27:50;;;;;;;5.62;3.50;;;;;;;18.99;38.37;97785.45;1787394;79;20990;-67
2022/01/03 02:30:25;;;;;;;4.17;3.22;;;;;;;19.08;38.26;97795.19;1771866;79;21130;-65
2022/01/03 02:32:51;;;;;;;3.67;3.10;;;;;;;19.00;38.36;97783.56;1773146;78;21465;-67
2022/01/03 02:35:20;;;;;;;4.15;3.50;;;;;;;19.03;38.33;97785.73;1775211;78;21477;-67
2022/01/03 02:37:47;;;;;;;3.67;3.30;;;;;;;19.06;38.26;97778.45;1784774;79;20963;-68
2022/01/03 02:40:14;;;;;;;3.90;3.12;;;;;;;19.11;38.20;97777.11;1787061;79;21497;-64
2022/01/03 02:42:41;;;;;;;4.40;3.60;;;;;;;19.16;38.10;97779.84;1791077;78;21227;-65
2022/01/03 02:45:15;;;;;;;4.37;3.20;;;;;;;19.14;38.11;97771.76;1776135;79;20970;-65
2022/01/03 02:47:46;;;;;;;3.83;3.27;;;;;;;19.20;38.08;97757.20;1770606;78;20931;-67
2022/01/03 02:50:13;;;;;;;5.08;3.12;;;;;;;19.24;38.04;97778.52;1775545;78;21422;-67
2022/01/03 02:52:39;;;;;;;3.33;2.87;;;;;;;19.25;38.03;97766.11;1793056;79;20939;-70
2022/01/03 02:55:08;;;;;;;3.77;3.22;;;;;;;19.30;37.95;97767.99;1775119;79;22014;-64
2022/01/03 02:57:42;;;;;;;4.60;3.65;;;;;;;19.38;37.88;97754.02;1786876;79;21035;-65
2022/01/03 03:00:12;;;;;;;4.10;3.47;;;;;;;19.34;37.91;97755.08;1786534;78;20920;-69
2022/01/03 03:02:39;;;;;;;4.12;3.72;;;;;;;19.34;37.91;97755.08;1786464;79;21096;-67
2022/01/03 03:05:08;;;;;;;3.35;2.98;;;;;;;19.28;38.01;97759.37;1786932;78;21501;-67
2022/01/03 03:07:37;;;;;;;3.92;3.30;;;;;;;19.28;38.03;97753.45;1793123;79;21242;-68
2022/01/03 03:10:10;;;;;;;3.95;3.55;;;;;;;19.36;37.92;97752.92;1778981;78;20924;-64
2022/01/03 03:12:37;;;;;;;5.60;3.85;;;;;;;19.35;37.93;97740.50;1792233;78;21468;-65
2022/01/03 03:15:05;;;;;;;5.40;3.92;;;;;;;19.40;37.91;97734.33;1777383;79;21121;-64
2022/01/03 03:17:33;;;;;;;4.42;3.37;;;;;;;19.40;37.93;97742.42;1786377;79;20982;-66
2022/01/03 03:20:09;;;;;;;4.15;3.35;;;;;;;19.41;37.87;97742.70;1776601;79;21142;-65
2022/01/03 03:22:36;;;;;;;4.72;4.10;;;;;;;19.36;37.92;97725.95;1784934;79;20951;-67
2022/01/03 03:25:14;;;;;;;4.83;3.77;;;;;;;19.29;38.04;97729.47;1779545;79;20883;-65
2022/01/03 03:27:46;;;;;;;4.67;3.70;;;;;;;19.31;38.04;97723.27;1783089;79;21417;-66
2022/01/03 03:30:30;;;;;;;5.03;3.92;;;;;;;19.31;38.04;97723.27;1776355;79;21056;-69
2022/01/03 03:33:05;;;;;;;4.55;3.67;;;;;;;19.35;38.01;97706.80;1789225;79;21541;-65
2022/01/03 03:35:32;;;;;;;6.05;4.67;;;;;;;19.32;38.04;97715.42;1778742;79;20845;-67
2022/01/03 03:38:00;;;;;;;5.83;3.80;;;;;;;19.29;38.11;97710.59;1743092;81;20992;-65
2022/01/03 03:40:26;;;;;;;5.22;4.30;;;;;;;19.28;38.18;97708.97;1711545;83;20904;-68
2022/01/03 03:42:53;;;;;;;4.83;4.20;;;;;;;19.39;38.06;97706.59;1785666;79;20979;-67
2022/01/03 03:45:21;;;;;;;5.60;4.65;;;;;;;19.37;38.08;97704.67;1719835;82;21637;-65
2022/01/03 03:47:48;;;;;;;4.97;4.40;;;;;;;19.47;38.02;97705.23;1773623;79;20947;-68
2022/01/03 03:50:15;;;;;;;6.42;4.30;;;;;;;19.49;37.94;97707.93;1781604;79;20943;-63
2022/01/03 03:52:41;;;;;;;4.55;3.67;;;;;;;19.53;37.88;97704.13;1795272;79;20939;-67
2022/01/03 03:55:11;;;;;;;5.00;4.28;;;;;;;19.51;37.95;97688.77;1784981;79;20935;-69
2022/01/03 03:57:37;;;;;;;3.90;3.50;;;;;;;19.50;37.95;97693.34;1789920;79;21051;-66
2022/01/03 04:00:10;;;;;;;4.28;3.50;;;;;;;19.54;37.97;97696.33;1742983;82;20983;-68
2022/01/03 04:02:40;;;;;;;5.95;4.03;;;;;;;19.56;37.92;97696.86;1779963;79;21006;-63
2022/01/03 04:05:08;;;;;;;3.70;3.40;;;;;;;19.61;37.86;97689.58;1782441;79;20923;-64
2022/01/03 04:07:37;;;;;;;4.42;3.95;;;;;;;19.64;37.87;97682.83;1788699;79;21632;-67
2022/01/03 04:10:05;;;;;;;4.47;3.80;;;;;;;19.71;37.70;97681.47;1787686;79;21138;-63
2022/01/03 04:12:33;;;;;;;4.72;4.17;;;;;;;19.79;37.59;97686.86;1792639;79;20840;-67
2022/01/03 04:15:01;;;;;;;4.40;4.00;;;;;;;19.84;37.59;97688.19;1791020;79;20924;-67
2022/01/03 04:17:28;;;;;;;6.12;4.42;;;;;;;19.78;37.64;97691.19;1794008;79;20975;-65
2022/01/03 04:19:55;;;;;;;6.33;4.70;;;;;;;19.82;37.62;97678.22;1798796;78;21005;-64
2022/01/03 04:22:22;;;;;;;4.28;3.87;;;;;;;19.88;37.51;97673.63;1795774;78;21765;-65
2022/01/03 04:24:50;;;;;;;6.75;4.20;;;;;;;19.77;37.60;97666.63;1791102;79;20974;-64
2022/01/03 04:27:17;;;;;;;5.60;3.77;;;;;;;19.80;37.62;97664.20;1801330;78;20915;-65
2022/01/03 04:29:43;;;;;;;4.83;3.92;;;;;;;19.78;37.63;97681.74;1805440;78;21552;-67
2022/01/03 04:32:10;;;;;;;7.22;4.05;;;;;;;19.76;37.66;97669.89;1801525;78;20970;-68
2022/01/03 04:34:37;;;;;;;5.10;4.50;;;;;;;19.80;37.62;97666.90;1798175;79;21147;-66
2022/01/03 04:37:04;;;;;;;6.53;4.62;;;;;;;19.83;37.62;97667.70;1800557;78;21472;-67
2022/01/03 04:39:30;;;;;;;5.15;4.40;;;;;;;19.87;37.47;97671.47;1808114;78;21441;-64
2022/01/03 04:41:57;;;;;;;6.25;4.60;;;;;;;19.86;37.45;97676.61;1805087;79;20954;-66
2022/01/03 04:44:23;;;;;;;4.83;4.30;;;;;;;19.86;37.43;97661.77;1793014;78;20984;-66
2022/01/03 04:46:51;;;;;;;6.08;4.03;;;;;;;19.86;37.51;97650.16;1800634;78;21402;-67
2022/01/03 04:49:17;;;;;;;5.92;4.10;;;;;;;19.92;37.40;97663.92;1788841;79;21044;-67
2022/01/03 04:51:44;;;;;;;4.70;4.20;;;;;;;19.89;37.42;97657.18;1806157;78;20851;-65
2022/01/03 04:54:10;;;;;;;4.90;4.40;;;;;;;19.96;37.31;97660.93;1799797;78;21499;-67
2022/01/03 04:56:38;;;;;;;6.53;4.35;;;;;;;20.01;37.21;97649.59;1808137;79;21597;-67
2022/01/03 04:59:04;;;;;;;4.72;4.03;;;;;;;19.99;37.17;97650.41;1802682;79;21127;-66
2022/01/03 05:01:31;;;;;;;5.55;4.20;;;;;;;19.95;37.19;97645.81;1803909;78;20927;-66
2022/01/03 05:03:58;;;;;;;4.90;4.30;;;;;;;19.93;37.18;97646.09;1794046;78;21798;-66
2022/01/03 05:06:25;;;;;;;5.92;4.05;;;;;;;19.86;37.30;97638.84;1791818;79;21005;-66
2022/01/03 05:08:53;;;;;;;4.62;4.15;;;;;;;19.82;37.37;97638.28;1792838;79;20989;-66
2022/01/03 05:11:20;;;;;;;5.83;4.33;;;;;;;19.87;37.27;97633.69;1805199;78;21185;-66
2022/01/03 05:13:46;;;;;;;6.90;4.40;;;;;;;19.86;37.22;97624.00;1798304;78;20976;-66
2022/01/03 05:16:14;;;;;;;6.15;3.92;;;;;;;19.93;37.07;97630.44;1795872;79;20931;-64
2022/01/03 05:18:40;;;;;;;5.75;4.53;;;;;;;19.87;37.15;97633.69;1801317;78;20982;-66
2022/01/03 05:21:07;;;;;;;5.35;4.85;;;;;;;19.84;37.23;97620.73;1793542;78;21012;-65
2022/01/03 05:23:34;;;;;;;5.42;4.37;;;;;;;19.81;37.33;97619.16;1791980;79;21819;-66
2022/01/03 05:26:01;;;;;;;5.30;4.20;;;;;;;19.82;37.33;97624.26;1793630;79;21037;-65
2022/01/03 05:28:30;;;;;;;5.20;4.55;;;;;;;19.90;37.27;97629.63;1796878;79;20872;-67
2022/01/03 05:30:57;;;;;;;6.22;4.17;;;;;;;19.88;37.23;97625.88;1799335;79;21469;-64
2022/01/03 05:33:25;;;;;;;7.90;5.12;;;;;;;19.99;37.19;97630.70;1795106;79;20986;-68
2022/01/03 05:35:51;;;;;;;7.53;5.45;;;;;;;19.93;37.18;97622.34;1774127;79;21113;-67
2022/01/03 05:38:18;;;;;;;7.62;6.03;;;;;;;19.94;37.16;97627.48;1799144;79;20893;-66
2022/01/03 05:40:45;;;;;;;5.60;4.70;;;;;;;20.01;37.07;97625.30;1757819;81;20971;-67
2022/01/03 05:43:11;;;;;;;6.58;5.08;;;;;;;19.98;37.07;97627.72;1730776;80;21010;-67
2022/01/03 05:45:38;;;;;;;5.55;4.80;;;;;;;19.97;37.09;97628.83;1717517;82;21062;-67
2022/01/03 05:48:06;;;;;;;5.22;4.37;;;;;;;20.08;36.95;97625.80;1749508;81;21146;-67
2022/01/03 05:50:32;;;;;;;5.42;3.85;;;;;;;20.13;36.81;97629.02;1719185;82;20940;-65
2022/01/03 05:53:00;;;;;;;6.28;4.45;;;;;;;20.14;36.75;97630.11;1752124;81;21426;-66
2022/01/03 05:55:26;;;;;;;5.60;4.55;;;;;;;20.15;36.71;97634.41;1750888;81;21045;-64
2022/01/03 05:57:54;;;;;;;6.17;4.65;;;;;;;20.16;36.70;97631.98;1756079;81;20920;-65
2022/01/03 06:00:24;;;;;;;6.10;4.55;;;;;;;20.08;36.78;97642.00;1745880;80;21122;-65
2022/01/03 06:02:55;;;;;;;5.50;4.15;;;;;;;20.13;36.71;97634.41;1743028;81;20971;-66
2022/01/03 06:05:32;;;;;;;4.90;4.40;;;;;;;20.13;36.68;97634.41;1789316;79;20959;-65
2022/01/03 06:07:48;;;;;;;5.62;4.55;;;;;;;20.11;36.62;97641.98;1784701;79;20993;-65
2022/01/03 06:10:17;;;;;;;6.30;4.10;;;;;;;20.13;36.60;97635.23;1797022;79;20978;-65
2022/01/03 06:12:47;;;;;;;5.15;4.00;;;;;;;20.21;36.51;97634.66;1793897;79;21170;-65
2022/01/03 06:15:16;;;;;;;5.03;4.03;;;;;;;20.23;36.45;97635.22;1793731;79;20986;-66
2022/01/03 06:17:44;;;;;;;5.60;4.28;;;;;;;20.26;36.39;97632.51;1795827;79;20848;-65
2022/01/03 06:20:12;;;;;;;5.35;4.45;;;;;;;20.21;36.42;97628.45;1798380;79;20958;-64
2022/01/03 06:22:40;;;;;;;6.40;4.25;;;;;;;20.27;36.35;97634.13;1788373;79;21443;-67
2022/01/03 06:25:08;;;;;;;4.30;3.90;;;;;;;20.43;36.11;97631.64;1786219;79;21948;-66
2022/01/03 06:27:36;;;;;;;6.65;4.42;;;;;;;20.28;36.26;97635.19;1790437;79;20931;-67
2022/01/03 06:30:05;;;;;;;6.58;4.65;;;;;;;20.22;36.37;97636.83;1796955;79;20985;-66
2022/01/03 06:32:36;;;;;;;7.70;5.35;;;;;;;20.19;36.36;97640.89;1797768;79;20937;-63
2022/01/03 06:35:05;;;;;;;7.25;4.58;;;;;;;20.25;36.31;97643.06;1781004;79;20990;-63
2022/01/03 06:37:32;;;;;;;6.20;4.30;;;;;;;20.27;36.24;97635.48;1794463;79;21155;-67
2022/01/03 06:40:06;;;;;;;5.78;4.25;;;;;;;20.31;36.18;97637.34;1792644;79;21010;-67
2022/01/03 06:42:33;;;;;;;4.70;3.85;;;;;;;20.28;36.20;97634.41;1774026;79;21038;-65
2022/01/03 06:45:00;;;;;;;5.55;4.40;;;;;;;20.25;36.26;97647.11;1794880;79;20907;-67
2022/01/03 06:47:28;;;;;;;4.45;4.05;;;;;;;20.21;36.35;97631.96;1793228;79;21537;-69
2022/01/03 06:49:55;;;;;;;5.03;4.53;;;;;;;20.17;36.39;97640.89;1785536;79;21159;-69
2022/01/03 06:52:23;;;;;;;7.15;5.20;;;;;;;20.22;36.33;97642.22;1795384;79;20905;-65
2022/01/03 06:54:50;;;;;;;6.17;5.37;;;;;;;20.29;36.26;97640.88;1791455;79;21023;-64
2022/01/03 06:57:16;;;;;;;8.00;5.28;;;;;;;20.34;36.22;97644.09;1756113;81;21557;-61
2022/01/03 06:59:44;;;;;;;5.72;5.00;;;;;;;20.33;36.29;97638.44;1719772;82;20908;-61
2022/01/03 07:02:10;;;;;;;6.08;4.92;;;;;;;20.33;36.26;97644.63;1733121;82;21149;-65
2022/01/03 07:04:36;;;;;;;6.22;5.58;;;;;;;20.45;36.16;97636.21;1729343;82;21514;-61
2022/01/03 07:07:03;;;;;;;6.35;5.65;;;;;;;20.43;36.12;97640.28;1755865;81;21029;-61
2022/01/03 07:09:29;;;;;;;7.58;4.83;;;;;;;20.42;36.13;97642.70;1735351;82;21004;-62
2022/01/03 07:11:56;;;;;;;5.65;4.85;;;;;;;20.44;36.05;97644.60;1763860;80;20931;-63
2022/01/03 07:19:51;;;;;;;6.95;4.47;;;;;;;20.55;35.83;97638.86;1743541;81;20996;-67
2022/01/03 07:22:17;;;;;;;5.25;4.12;;;;;;;20.59;35.79;97633.72;1742377;80;20947;-66
2022/01/03 07:24:44;;;;;;;5.60;4.28;;;;;;;20.56;35.81;97635.63;1751844;81;21050;-65
2022/01/03 07:27:11;;;;;;;6.30;5.10;;;;;;;20.47;35.86;97648.89;1714229;82;21244;-66
2022/01/03 07:29:38;;;;;;;5.70;4.15;;;;;;;20.53;35.75;97649.14;1746062;81;20979;-64
2022/01/03 07:32:06;;;;;;;4.97;3.80;;;;;;;20.52;35.66;97652.13;1760474;81;20920;-63
2022/01/03 07:34:33;;;;;;;4.28;3.55;;;;;;;20.54;35.67;97652.12;1729445;82;20880;-67
2022/01/03 07:37:00;;;;;;;4.22;3.83;;;;;;;20.63;35.60;97649.08;1758455;81;21040;-67
2022/01/03 07:39:29;;;;;;;5.03;4.40;;;;;;;20.69;35.55;97653.38;1740529;81;21580;-66
2022/01/03 07:41:54;;;;;;;6.40;4.17;;;;;;;20.67;35.44;97643.41;1728843;82;20955;-65
2022/01/03 07:44:21;;;;;;;5.20;4.67;;;;;;;20.71;35.39;97636.88;1749303;81;21039;-66
2022/01/03 07:46:48;;;;;;;5.10;4.60;;;;;;;20.77;35.27;97643.34;1759144;80;21015;-67
2022/01/03 07:49:14;;;;;;;6.30;3.95;;;;;;;20.73;35.21;97630.64;1735673;82;21039;-67
2022/01/03 07:51:40;;;;;;;5.08;4.53;;;;;;;20.62;35.24;97631.25;1753565;80;21851;-66
2022/01/03 07:54:07;;;;;;;6.78;4.00;;;;;;;20.72;35.11;97636.62;1749203;80;20944;-66
2022/01/03 07:56:33;;;;;;;5.08;3.87;;;;;;;20.76;35.09;97634.14;1755358;81;20947;-67
2022/01/03 07:59:00;;;;;;;6.20;4.03;;;;;;;20.87;34.91;97629.77;1762595;81;20899;-67
2022/01/03 08:01:26;;;;;;;4.30;3.85;;;;;;;20.85;34.93;97631.95;1756150;81;21071;-68
2022/01/03 08:03:53;;;;;;;6.67;4.95;;;;;;;20.90;34.89;97638.66;1764913;81;21091;-66
2022/01/03 08:06:20;;;;;;;5.28;4.08;;;;;;;20.92;34.83;97628.38;1722718;82;20903;-66
2022/01/03 08:08:46;;;;;;;5.05;4.00;;;;;;;21.03;34.76;97625.59;1759224;81;21166;-67
2022/01/03 08:11:12;;;;;;;7.42;4.65;;;;;;;20.89;34.72;97628.93;1758587;80;20950;-65
2022/01/03 08:13:39;;;;;;;5.40;4.30;;;;;;;20.97;34.71;97615.90;1728682;82;20967;-66
2022/01/03 08:16:06;;;;;;;6.05;4.75;;;;;;;20.90;34.80;97620.28;1747666;81;21160;-66
2022/01/03 08:18:33;;;;;;;5.97;5.37;;;;;;;20.94;34.76;97611.86;1733518;80;20892;-68
2022/01/03 08:21:00;;;;;;;6.47;4.53;;;;;;;20.99;34.69;97612.39;1759340;80;20963;-65
2022/01/03 08:23:27;;;;;;;8.25;5.03;;;;;;;21.12;34.62;97618.55;1767127;80;21508;-67
2022/01/03 08:25:53;;;;;;;5.05;4.55;;;;;;;21.16;34.61;97612.82;1758059;81;20883;-66
2022/01/03 08:28:19;;;;;;;5.60;4.62;;;;;;;21.30;34.38;97619.98;1807884;78;21753;-64
2022/01/03 08:30:46;;;;;;;4.95;4.12;;;;;;;21.36;34.29;97618.86;1819287;78;21555;-67
2022/01/03 08:33:12;;;;;;;7.00;4.53;;;;;;;21.44;34.08;97612.03;1804424;78;20942;-66
2022/01/03 08:35:38;;;;;;;4.80;3.90;;;;;;;21.65;34.01;97610.75;1813352;78;20977;-65
2022/01/03 08:38:05;;;;;;;5.60;4.42;;;;;;;21.97;33.69;97613.70;1781840;80;20896;-67
2022/01/03 08:40:35;;;;;;;5.20;4.70;;;;;;;22.13;33.38;97615.11;1777412;80;21133;-66
2022/01/03 08:43:02;;;;;;;7.85;5.83;;;;;;;22.23;33.09;97612.03;1807259;78;21392;-66
2022/01/03 08:45:28;;;;;;;7.85;5.85;;;;;;;22.30;32.92;97604.35;1816093;78;20938;-68
2022/01/03 08:47:55;;;;;;;8.73;5.33;;;;;;;22.23;33.02;97603.91;1779386;80;21159;-65
2022/01/03 08:50:21;;;;;;;8.38;5.87;;;;;;;22.09;32.98;97611.92;1815403;78;20965;-65
2022/01/03 08:52:48;;;;;;;6.30;4.67;;;;;;;22.05;33.06;97600.06;1806267;78;21865;-70
2022/01/03 08:55:15;;;;;;;6.87;4.70;;;;;;;22.04;33.03;97583.02;1820851;78;20910;-64
2022/01/03 08:57:42;;;;;;;6.28;4.72;;;;;;;22.10;33.09;97598.65;1809306;78;21539;-66
2022/01/03 09:00:10;;;;;;;7.40;4.95;;;;;;;22.10;33.13;97595.94;1814533;78;21554;-64
2022/01/03 09:02:37;;;;;;;5.92;5.05;;;;;;;22.18;33.03;97600.72;1815755;78;21060;-65
2022/01/03 09:05:04;;;;;;;8.20;5.35;;;;;;;22.41;32.83;97576.04;1779869;80;21129;-65
2022/01/03 09:07:31;;;;;;;5.50;4.08;;;;;;;22.28;32.77;97599.78;1815318;78;20871;-65
2022/01/03 09:09:59;;;;;;;6.00;4.25;;;;;;;22.21;32.72;97581.73;1812152;78;20957;-66
2022/01/03 09:12:25;;;;;;;5.30;4.20;;;;;;;22.13;32.73;97596.16;1765031;80;20981;-65
2022/01/03 09:14:53;;;;;;;5.58;4.72;;;;;;;22.23;32.64;97587.12;1741317;81;20911;-64
2022/01/03 09:17:21;;;;;;;7.22;5.25;;;;;;;22.23;32.67;97594.43;1756418;81;21140;-66
2022/01/03 09:19:50;;;;;;;6.33;5.03;;;;;;;22.34;32.53;97591.31;1816432;78;21475;-69
2022/01/03 09:22:22;;;;;;;7.42;5.12;;;;;;;22.16;32.74;97580.45;1798554;78;21553;-64
2022/01/03 09:24:53;;;;;;;6.83;4.05;;;;;;;21.97;32.91;97593.39;1796277;79;20923;-64
2022/01/03 09:30:03;;;;;;;5.85;3.77;;;;;;;21.81;32.98;97585.69;1752529;81;21153;-66
2022/01/03 09:32:31;;;;;;;6.47;4.20;;;;;;;21.75;33.05;97586.83;1723156;82;20984;-68
2022/01/03 09:34:58;;;;;;;5.03;4.30;;;;;;;21.68;33.08;97572.30;1740124;81;21029;-69
2022/01/03 09:37:26;;;;;;;5.45;4.15;;;;;;;21.58;33.26;97573.77;1740386;82;20996;-63
2022/01/03 09:39:53;;;;;;;5.20;4.30;;;;;;;21.58;33.36;97577.82;1759864;80;20903;-66
2022/01/03 09:42:23;;;;;;;6.97;4.90;;;;;;;21.65;33.37;97570.16;1760634;80;21093;-64
2022/01/03 09:44:53;;;;;;;5.90;4.83;;;;;;;21.83;33.30;97569.96;1720715;82;20991;-66
2022/01/03 09:47:21;;;;;;;7.55;5.10;;;;;;;22.11;33.08;97562.34;1733591;82;21496;-63
2022/01/03 09:49:48;;;;;;;8.50;5.08;;;;;;;22.23;32.97;97561.39;1758969;81;20971;-69
2022/01/03 09:52:15;;;;;;;5.25;4.75;;;;;;;22.40;32.78;97536.49;1737933;81;21034;-64
2022/01/03 09:54:42;;;;;;;6.87;4.83;;;;;;;22.74;32.49;97549.30;1751731;81;21809;-65
2022/01/03 09:57:13;;;;;;;9.53;5.00;;;;;;;23.37;31.96;97561.03;1749884;80;21591;-67
2022/01/03 09:59:43;;;;;;;7.92;4.50;;;;;;;23.95;31.37;97548.53;1759197;81;21053;-68
2022/01/03 10:02:09;;;;;;;5.78;4.85;;;;;;;24.53;30.37;97545.39;1764887;81;20963;-66
2022/01/03 10:04:39;;;;;;;6.85;4.97;;;;;;;25.12;29.66;97545.66;1748745;81;21037;-68
2022/01/03 10:07:14;;;;;;;6.62;5.65;;;;;;;25.46;28.89;97541.00;1735404;82;21163;-67
2022/01/03 10:09:42;;;;;;;6.65;5.08;;;;;;;25.43;28.61;97542.95;1723529;81;21572;-64
2022/01/03 10:12:12;;;;;;;6.95;4.85;;;;;;;25.33;28.45;97545.13;1761185;80;20991;-65
2022/01/03 10:14:42;;;;;;;7.10;5.08;;;;;;;25.07;28.59;97552.59;1719187;82;21674;-67
2022/01/03 10:17:12;;;;;;;6.17;4.50;;;;;;;24.81;28.75;97560.30;1741693;81;21059;-67
2022/01/03 10:19:58;;;;;;;6.60;4.65;;;;;;;24.52;28.99;97556.58;1749542;81;21078;-66
2022/01/03 10:22:30;;;;;;;4.95;4.10;;;;;;;24.25;29.30;97546.56;1735454;82;22146;-65
2022/01/03 10:24:59;;;;;;;7.60;4.62;;;;;;;23.78;29.77;97552.39;1733303;82;21072;-65
2022/01/03 10:27:46;;;;;;;6.47;5.22;;;;;;;23.44;30.29;97550.05;1762895;80;21034;-66
2022/01/03 10:30:40;;;;;;;6.20;4.20;;;;;;;23.24;30.62;97552.55;1727284;82;21494;-65
2022/01/03 10:33:11;;;;;;;7.33;5.50;;;;;;;22.87;31.08;97556.68;1760099;81;21852;-67
2022/01/03 10:35:43;;;;;;;6.67;4.45;;;;;;;22.62;31.53;97557.05;1723055;81;22360;-65
2022/01/03 10:38:10;;;;;;;5.33;4.53;;;;;;;22.44;31.87;97551.08;1763101;81;20892;-63
2022/01/03 10:40:37;;;;;;;6.15;4.55;;;;;;;22.33;32.11;97553.13;1728825;82;21493;-66
2022/01/03 10:43:19;;;;;;;7.75;4.10;;;;;;;22.19;32.30;97541.95;1761176;80;21425;-67
2022/01/03 10:45:46;;;;;;;5.42;3.80;;;;;;;22.24;32.34;97545.95;1749110;81;21547;-70
2022/01/03 10:48:32;;;;;;;7.20;4.70;;;;;;;22.31;32.25;97553.16;1737337;81;21600;-66
2022/01/03 10:51:00;;;;;;;9.58;3.83;;;;;;;22.21;32.33;97550.05;1765825;79;21469;-64
2022/01/03 10:53:41;;;;;;;6.03;3.75;;;;;;;22.33;32.32;97549.60;1731108;82;21536;-65
2022/01/03 10:56:34;;;;;;;7.37;4.83;;;;;;;22.40;32.25;97545.43;1718607;82;21023;-64
2022/01/03 10:59:25;;;;;;;5.65;4.70;;;;;;;22.69;32.83;97538.53;1746183;81;21499;-65
2022/01/03 11:02:05;;;;;;;7.60;4.60;;;;;;;22.98;32.48;97536.45;1762518;81;20884;-66
2022/01/03 11:13:15;;;;;;;8.63;4.97;;;;;;;23.39;31.66;97531.72;1757905;80;21163;-63
2022/01/03 11:15:57;;;;;;;5.60;4.25;;;;;;;23.34;31.76;97521.17;1728532;82;20947;-63
2022/01/03 11:18:34;;;;;;;7.28;5.00;;;;;;;23.18;31.88;97518.47;1749712;81;20982;-67
2022/01/03 11:21:12;;;;;;;6.55;5.30;;;;;;;23.21;31.73;97520.59;1747552;81;20916;-65
2022/01/03 11:23:41;;;;;;;6.15;4.67;;;;;;;22.98;31.77;97516.11;1785338;79;21034;-63
2022/01/03 11:26:14;;;;;;;6.78;4.78;;;;;;;22.90;31.68;97521.39;1805618;78;21939;-65
2022/01/03 11:28:41;;;;;;;6.05;4.92;;;;;;;22.52;32.20;97514.66;1798846;78;20955;-66
2022/01/03 11:31:10;;;;;;;10.35;5.62;;;;;;;22.32;32.54;97524.95;1801584;78;20994;-64
2022/01/03 11:33:38;;;;;;;9.15;5.72;;;;;;;22.20;33.01;97515.11;1759608;79;21481;-62
2022/01/03 11:36:05;;;;;;;7.42;5.03;;;;;;;22.17;33.34;97525.17;1812024;78;20986;-61
2022/01/03 11:38:37;;;;;;;7.95;5.92;;;;;;;22.07;33.47;97514.75;1810532;78;22174;-65
2022/01/03 11:41:05;;;;;;;6.97;5.00;;;;;;;22.14;33.80;97526.56;1808539;79;21042;-65
2022/01/03 11:43:40;;;;;;;8.05;4.97;;;;;;;22.02;33.64;97528.35;1804457;78;21017;-65
2022/01/03 11:46:07;;;;;;;11.93;6.30;;;;;;;21.88;33.77;97529.33;1806425;78;20938;-65
2022/01/03 11:48:37;;;;;;;10.80;6.17;;;;;;;21.68;34.06;97524.95;1802615;78;21112;-64
2022/01/03 11:51:10;;;;;;;7.65;5.90;;;;;;;21.56;34.27;97527.26;1806886;78;21971;-66
2022/01/03 11:53:43;;;;;;;8.23;6.45;;;;;;;21.57;34.36;97525.34;1811842;78;21531;-68
2022/01/03 11:56:18;;;;;;;9.15;6.70;;;;;;;21.61;34.46;97529.09;1805707;78;20923;-67
2022/01/03 12:04:14;;;;;;;6.53;4.87;;;;;;;21.33;35.25;97503.67;1798430;79;21148;-66
2022/01/03 12:06:43;;;;;;;10.05;5.62;;;;;;;21.24;35.43;97508.92;1803577;78;20911;-65
2022/01/03 12:09:12;;;;;;;7.37;5.08;;;;;;;21.27;35.46;97517.83;1808801;78;20986;-65